Terminal Aerodrome Forecast
Issued by NWS

Home | Current Version | Previous Version | Text Only | Print | Product List | Glossary On
Versions: 1 2 3 4 5 6 7 8 9 10 11 12 13 14 15 16 17 18 19 20
000
FTUS43 KDTX 271120
TAFDET
TAF
KDET 271120Z 2712/2812 08004KT P6SM SCT060 BKN110
     FM271600 09005KT P6SM SCT025
     FM271800 09006KT P6SM BKN040
     FM280000 13004KT P6SM SCT040=

USA.gov is the U.S. government's official web portal to all federal, state and local government web resources and services.